NCAR-RAP Real-Time Weather Data

Output produced by METARs form (01 October 2022  04:30 UTC)
found at http://weather.rap.ucar.edu/surface/
 
VVNB 010400Z 10008KT 9999 BKN010 26/24 Q1011 NOSIG
VVNB 010330Z 10008KT 070V130 9999 FEW009 SCT014 BKN018 27/24 Q1011 NOSIG
VVNB 010300Z 10008KT 9999 FEW009 SCT012 BKN014 27/25 Q1011 NOSIG
VVNB 010230Z 10006KT 9000 SCT008 BKN011 26/24 Q1011 NOSIG
VVNB 010200Z 08006KT 9999 SCT006 BKN008 26/25 Q1011 NOSIG
VVNB 010130Z 07006KT 9999 BKN007 BKN014 26/25 Q1011 NOSIG
VVNB 010100Z 07006KT 050V110 9999 -RA FEW005 BKN007 25/24 Q1011 TEMPO 4000 RA BR
VVNB 010030Z 07007KT 6000 SCT005 BKN009 BKN020 25/24 Q1010 TEMPO 3500 RA BR
VVNB 010000Z 06005KT 4200 BR SCT004 BKN024 OVC027 27/24 Q1010 NOSIG
VVNB 302330Z 07005KT 4000 -RA BR SCT004 BKN025 OVC034 25/24 Q1010 BECMG TL2350 2500 RA BR
VVNB 302300Z 06007KT 030V090 4900 -RA BR FEW008 BKN036 25/24 Q1009 NOSIG
VVNB 302230Z 06005KT 6000 -RA SCT009 BKN041 25/24 Q1009 NOSIG
VVNB 302200Z 08004KT 7000 FEW013 BKN028 BKN034 25/24 Q1009 NOSIG
VVNB 302130Z 06004KT 9999 FEW026 BKN034 25/24 Q1009 NOSIG
VVNB 302100Z 05001KT 9000 FEW029 BKN036 25/24 Q1008 NOSIG
VVNB 302030Z VRB03KT 8000 FEW003 BKN057 25/24 Q1008 NOSIG
VVNB 302000Z 33003KT 7000 FEW023 SCT042 BKN049 25/24 Q1009 NOSIG
VVNB 301930Z VRB02KT 7000 SCT010 BKN023 25/24 Q1009 NOSIG
VVNB 301900Z VRB02KT 8000 FEW011 25/24 Q1009 NOSIG
VVNB 301830Z VRB02KT 5000 BR FEW012 25/24 Q1009 NOSIG
VVNB 301800Z VRB02KT 7000 -RA FEW004 BKN015 25/24 Q1009 NOSIG
VVNB 301730Z VRB02KT 4200 RA SCT007 BKN015 FEW025TCU 25/24 Q1010 BECMG TL1745 6000 -RA
VVNB 301700Z VRB02KT 9000 -RA BKN014 25/24 Q1009 TEMPO 4000 RA